Terminal Aerodrome Forecast
Issued by NWS

Home | Current Version | Previous Version | Text Only | Print | Product List | Glossary On
Versions: 1 2 3 4 5 6 7 8 9 10 11 12 13 14 15 16 17 18 19 20 21 22 23 24 25 26 27 28 29 30 31 32 33 34 35
000
FTUS46 KLOX 230150 AAC
TAFSBA
TAF AMD
KSBA 230150Z 2302/2324 09010KT P6SM -SHRA BKN025 OVC040
     FM230300 22012KT P6SM -SHRA OVC015
     FM230900 20008KT P6SM -SHRA BKN035 PROB30 2311/2315 4SM -TSRA
      OVC015CB
     FM232000 23008KT P6SM -SHRA BKN035=

USA.gov is the U.S. government's official web portal to all federal, state and local government web resources and services.